sensor_id;sensor_type;location;lat;lon;timestamp;P1;durP1;ratioP1;P2;durP2;ratioP2
8139;SDS011;4111;50.972;7.072;2024-01-30T00:00:04;11.43;;;6.80;;
8139;SDS011;4111;50.972;7.072;2024-01-30T00:02:31;9.53;;;7.40;;
8139;SDS011;4111;50.972;7.072;2024-01-30T00:04:59;9.10;;;6.97;;
8139;SDS011;4111;50.972;7.072;2024-01-30T00:07:25;8.57;;;6.60;;
8139;SDS011;4111;50.972;7.072;2024-01-30T00:09:52;8.63;;;6.80;;
8139;SDS011;4111;50.972;7.072;2024-01-30T00:12:18;7.97;;;7.20;;
8139;SDS011;4111;50.972;7.072;2024-01-30T00:14:45;8.40;;;6.30;;
8139;SDS011;4111;50.972;7.072;2024-01-30T00:17:11;9.13;;;6.63;;
8139;SDS011;4111;50.972;7.072;2024-01-30T00:19:38;10.27;;;6.40;;
8139;SDS011;4111;50.972;7.072;2024-01-30T00:22:05;9.20;;;7.07;;
8139;SDS011;4111;50.972;7.072;2024-01-30T00:24:31;9.40;;;7.10;;
8139;SDS011;4111;50.972;7.072;2024-01-30T00:26:58;8.47;;;7.10;;
8139;SDS011;4111;50.972;7.072;2024-01-30T00:29:24;8.43;;;6.40;;
8139;SDS011;4111;50.972;7.072;2024-01-30T00:31:55;7.47;;;6.67;;
8139;SDS011;4111;50.972;7.072;2024-01-30T00:34:22;8.53;;;6.90;;
8139;SDS011;4111;50.972;7.072;2024-01-30T00:36:48;10.03;;;6.23;;
8139;SDS011;4111;50.972;7.072;2024-01-30T00:39:15;11.17;;;6.83;;
8139;SDS011;4111;50.972;7.072;2024-01-30T00:41:42;8.97;;;6.80;;
8139;SDS011;4111;50.972;7.072;2024-01-30T00:44:08;8.80;;;6.47;;
8139;SDS011;4111;50.972;7.072;2024-01-30T00:46:35;7.90;;;7.03;;
8139;SDS011;4111;50.972;7.072;2024-01-30T00:49:01;10.37;;;6.93;;
8139;SDS011;4111;50.972;7.072;2024-01-30T00:51:28;9.83;;;6.93;;
8139;SDS011;4111;50.972;7.072;2024-01-30T00:53:57;7.87;;;6.43;;
8139;SDS011;4111;50.972;7.072;2024-01-30T00:56:23;7.90;;;6.47;;
8139;SDS011;4111;50.972;7.072;2024-01-30T00:58:50;10.47;;;7.23;;
8139;SDS011;4111;50.972;7.072;2024-01-30T01:01:17;7.13;;;6.43;;
8139;SDS011;4111;50.972;7.072;2024-01-30T01:03:43;12.13;;;7.90;;
8139;SDS011;4111;50.972;7.072;2024-01-30T01:06:10;10.47;;;7.17;;
8139;SDS011;4111;50.972;7.072;2024-01-30T01:08:37;9.23;;;7.57;;
8139;SDS011;4111;50.972;7.072;2024-01-30T01:11:03;10.53;;;6.97;;
8139;SDS011;4111;50.972;7.072;2024-01-30T01:13:30;8.57;;;6.80;;
8139;SDS011;4111;50.972;7.072;2024-01-30T01:15:56;9.10;;;7.03;;
8139;SDS011;4111;50.972;7.072;2024-01-30T01:18:23;9.17;;;7.07;;
8139;SDS011;4111;50.972;7.072;2024-01-30T01:20:49;8.57;;;6.90;;
8139;SDS011;4111;50.972;7.072;2024-01-30T01:23:16;8.90;;;6.23;;
8139;SDS011;4111;50.972;7.072;2024-01-30T01:25:42;6.97;;;6.20;;
8139;SDS011;4111;50.972;7.072;2024-01-30T01:28:09;8.07;;;7.23;;
8139;SDS011;4111;50.972;7.072;2024-01-30T01:30:35;8.10;;;6.63;;
8139;SDS011;4111;50.972;7.072;2024-01-30T01:33:02;9.17;;;7.07;;
8139;SDS011;4111;50.972;7.072;2024-01-30T01:35:29;7.37;;;6.33;;
8139;SDS011;4111;50.972;7.072;2024-01-30T01:37:55;11.47;;;7.23;;
8139;SDS011;4111;50.972;7.072;2024-01-30T01:40:22;7.07;;;6.27;;
8139;SDS011;4111;50.972;7.072;2024-01-30T01:42:50;7.10;;;6.40;;
8139;SDS011;4111;50.972;7.072;2024-01-30T01:45:18;9.17;;;7.30;;
8139;SDS011;4111;50.972;7.072;2024-01-30T01:47:52;9.43;;;6.83;;
8139;SDS011;4111;50.972;7.072;2024-01-30T01:50:20;9.57;;;6.80;;
8139;SDS011;4111;50.972;7.072;2024-01-30T01:52:47;8.93;;;6.77;;
8139;SDS011;4111;50.972;7.072;2024-01-30T01:55:15;8.07;;;6.60;;
8139;SDS011;4111;50.972;7.072;2024-01-30T01:57:44;9.13;;;6.37;;
8139;SDS011;4111;50.972;7.072;2024-01-30T02:00:11;8.23;;;6.10;;
8139;SDS011;4111;50.972;7.072;2024-01-30T02:02:38;8.43;;;6.17;;
8139;SDS011;4111;50.972;7.072;2024-01-30T02:05:05;7.17;;;6.47;;
8139;SDS011;4111;50.972;7.072;2024-01-30T02:07:32;10.07;;;6.37;;
8139;SDS011;4111;50.972;7.072;2024-01-30T02:09:59;8.73;;;6.53;;
8139;SDS011;4111;50.972;7.072;2024-01-30T02:12:25;8.50;;;6.37;;
8139;SDS011;4111;50.972;7.072;2024-01-30T02:14:52;8.77;;;6.37;;
8139;SDS011;4111;50.972;7.072;2024-01-30T02:17:19;7.10;;;6.40;;
8139;SDS011;4111;50.972;7.072;2024-01-30T02:19:46;6.60;;;5.90;;
8139;SDS011;4111;50.972;7.072;2024-01-30T02:22:13;8.93;;;6.10;;
8139;SDS011;4111;50.972;7.072;2024-01-30T02:24:40;10.80;;;6.37;;
8139;SDS011;4111;50.972;7.072;2024-01-30T02:27:06;7.00;;;6.30;;
8139;SDS011;4111;50.972;7.072;2024-01-30T02:29:33;8.17;;;6.60;;
8139;SDS011;4111;50.972;7.072;2024-01-30T02:31:59;7.90;;;6.47;;
8139;SDS011;4111;50.972;7.072;2024-01-30T02:34:25;7.43;;;5.90;;
8139;SDS011;4111;50.972;7.072;2024-01-30T02:36:52;10.23;;;6.77;;
8139;SDS011;4111;50.972;7.072;2024-01-30T02:39:19;6.93;;;6.00;;
8139;SDS011;4111;50.972;7.072;2024-01-30T02:41:46;6.87;;;6.17;;
8139;SDS011;4111;50.972;7.072;2024-01-30T02:44:12;8.50;;;5.90;;
8139;SDS011;4111;50.972;7.072;2024-01-30T02:46:38;8.07;;;6.00;;
8139;SDS011;4111;50.972;7.072;2024-01-30T02:49:05;9.90;;;6.63;;
8139;SDS011;4111;50.972;7.072;2024-01-30T02:51:31;8.27;;;6.37;;
8139;SDS011;4111;50.972;7.072;2024-01-30T02:53:58;8.40;;;5.93;;
8139;SDS011;4111;50.972;7.072;2024-01-30T02:56:24;6.73;;;5.40;;
8139;SDS011;4111;50.972;7.072;2024-01-30T02:58:51;7.63;;;6.27;;
8139;SDS011;4111;50.972;7.072;2024-01-30T03:01:17;7.47;;;5.60;;
8139;SDS011;4111;50.972;7.072;2024-01-30T03:03:44;7.37;;;6.20;;
8139;SDS011;4111;50.972;7.072;2024-01-30T03:06:10;8.97;;;6.50;;
8139;SDS011;4111;50.972;7.072;2024-01-30T03:08:37;8.57;;;5.97;;
8139;SDS011;4111;50.972;7.072;2024-01-30T03:11:03;7.83;;;6.33;;
8139;SDS011;4111;50.972;7.072;2024-01-30T03:13:30;8.33;;;5.80;;
8139;SDS011;4111;50.972;7.072;2024-01-30T03:15:56;8.07;;;6.10;;
8139;SDS011;4111;50.972;7.072;2024-01-30T03:18:23;9.13;;;6.30;;
8139;SDS011;4111;50.972;7.072;2024-01-30T03:20:50;8.53;;;6.07;;
8139;SDS011;4111;50.972;7.072;2024-01-30T03:23:16;6.80;;;5.90;;
8139;SDS011;4111;50.972;7.072;2024-01-30T03:25:43;6.93;;;5.70;;
8139;SDS011;4111;50.972;7.072;2024-01-30T03:28:09;8.13;;;6.30;;
8139;SDS011;4111;50.972;7.072;2024-01-30T03:30:36;8.03;;;5.97;;
8139;SDS011;4111;50.972;7.072;2024-01-30T03:33:02;7.87;;;6.20;;
8139;SDS011;4111;50.972;7.072;2024-01-30T03:35:29;7.23;;;5.80;;
8139;SDS011;4111;50.972;7.072;2024-01-30T03:37:55;7.83;;;5.73;;
8139;SDS011;4111;50.972;7.072;2024-01-30T03:40:22;7.80;;;6.10;;
8139;SDS011;4111;50.972;7.072;2024-01-30T03:42:48;7.13;;;6.30;;
8139;SDS011;4111;50.972;7.072;2024-01-30T03:45:15;8.70;;;6.13;;
8139;SDS011;4111;50.972;7.072;2024-01-30T03:47:43;7.40;;;5.60;;
8139;SDS011;4111;50.972;7.072;2024-01-30T03:50:10;7.70;;;5.63;;
8139;SDS011;4111;50.972;7.072;2024-01-30T03:52:36;7.63;;;5.17;;
8139;SDS011;4111;50.972;7.072;2024-01-30T03:55:03;9.87;;;5.97;;
8139;SDS011;4111;50.972;7.072;2024-01-30T03:57:29;7.20;;;5.63;;
8139;SDS011;4111;50.972;7.072;2024-01-30T03:59:56;7.47;;;5.93;;
8139;SDS011;4111;50.972;7.072;2024-01-30T04:02:26;6.27;;;5.60;;
8139;SDS011;4111;50.972;7.072;2024-01-30T04:04:52;8.10;;;6.20;;
8139;SDS011;4111;50.972;7.072;2024-01-30T04:07:19;8.03;;;6.00;;
8139;SDS011;4111;50.972;7.072;2024-01-30T04:09:49;8.50;;;5.67;;
8139;SDS011;4111;50.972;7.072;2024-01-30T04:12:15;7.60;;;6.20;;
8139;SDS011;4111;50.972;7.072;2024-01-30T04:14:43;10.73;;;6.13;;
8139;SDS011;4111;50.972;7.072;2024-01-30T04:17:10;7.33;;;5.50;;
8139;SDS011;4111;50.972;7.072;2024-01-30T04:19:39;6.07;;;4.80;;
8139;SDS011;4111;50.972;7.072;2024-01-30T04:22:06;6.90;;;5.33;;
8139;SDS011;4111;50.972;7.072;2024-01-30T04:24:32;6.57;;;5.13;;
8139;SDS011;4111;50.972;7.072;2024-01-30T04:26:59;7.53;;;4.83;;
8139;SDS011;4111;50.972;7.072;2024-01-30T04:29:25;7.40;;;5.20;;
8139;SDS011;4111;50.972;7.072;2024-01-30T04:31:52;8.20;;;5.47;;
8139;SDS011;4111;50.972;7.072;2024-01-30T04:34:18;6.00;;;4.80;;
8139;SDS011;4111;50.972;7.072;2024-01-30T04:36:45;5.93;;;4.70;;
8139;SDS011;4111;50.972;7.072;2024-01-30T04:39:12;7.20;;;5.60;;
8139;SDS011;4111;50.972;7.072;2024-01-30T04:41:39;7.40;;;5.17;;
8139;SDS011;4111;50.972;7.072;2024-01-30T04:44:06;7.80;;;5.30;;
8139;SDS011;4111;50.972;7.072;2024-01-30T04:46:33;6.70;;;4.83;;
8139;SDS011;4111;50.972;7.072;2024-01-30T04:49:00;7.20;;;4.40;;
8139;SDS011;4111;50.972;7.072;2024-01-30T04:51:27;8.57;;;4.93;;
8139;SDS011;4111;50.972;7.072;2024-01-30T04:53:53;6.37;;;4.80;;
8139;SDS011;4111;50.972;7.072;2024-01-30T04:56:20;6.90;;;4.80;;
8139;SDS011;4111;50.972;7.072;2024-01-30T04:58:46;9.57;;;5.00;;
8139;SDS011;4111;50.972;7.072;2024-01-30T05:01:16;5.60;;;4.83;;
8139;SDS011;4111;50.972;7.072;2024-01-30T05:03:43;6.50;;;5.10;;
8139;SDS011;4111;50.972;7.072;2024-01-30T05:06:11;7.10;;;5.20;;
8139;SDS011;4111;50.972;7.072;2024-01-30T05:08:37;6.60;;;5.20;;
8139;SDS011;4111;50.972;7.072;2024-01-30T05:11:05;5.57;;;5.07;;
8139;SDS011;4111;50.972;7.072;2024-01-30T05:13:32;5.70;;;4.90;;
8139;SDS011;4111;50.972;7.072;2024-01-30T05:15:58;6.17;;;5.17;;
8139;SDS011;4111;50.972;7.072;2024-01-30T05:18:25;5.43;;;4.93;;
8139;SDS011;4111;50.972;7.072;2024-01-30T05:20:52;5.77;;;4.57;;
8139;SDS011;4111;50.972;7.072;2024-01-30T05:23:18;5.93;;;4.60;;
8139;SDS011;4111;50.972;7.072;2024-01-30T05:25:45;9.90;;;5.37;;
8139;SDS011;4111;50.972;7.072;2024-01-30T05:28:11;14.40;;;5.67;;
8139;SDS011;4111;50.972;7.072;2024-01-30T05:30:38;9.60;;;5.00;;
8139;SDS011;4111;50.972;7.072;2024-01-30T05:33:04;8.80;;;5.60;;
8139;SDS011;4111;50.972;7.072;2024-01-30T05:35:31;8.83;;;5.47;;
8139;SDS011;4111;50.972;7.072;2024-01-30T05:37:58;8.07;;;6.77;;
8139;SDS011;4111;50.972;7.072;2024-01-30T05:40:24;8.37;;;5.30;;
8139;SDS011;4111;50.972;7.072;2024-01-30T05:42:51;8.67;;;5.37;;
8139;SDS011;4111;50.972;7.072;2024-01-30T05:45:17;5.73;;;5.07;;
8139;SDS011;4111;50.972;7.072;2024-01-30T05:47:44;6.33;;;4.73;;
8139;SDS011;4111;50.972;7.072;2024-01-30T05:50:10;6.17;;;5.57;;
8139;SDS011;4111;50.972;7.072;2024-01-30T05:52:37;6.13;;;4.77;;
8139;SDS011;4111;50.972;7.072;2024-01-30T05:55:04;7.97;;;5.33;;
8139;SDS011;4111;50.972;7.072;2024-01-30T05:57:31;8.90;;;5.23;;
8139;SDS011;4111;50.972;7.072;2024-01-30T05:59:57;7.60;;;4.60;;
8139;SDS011;4111;50.972;7.072;2024-01-30T06:02:24;6.33;;;5.37;;
8139;SDS011;4111;50.972;7.072;2024-01-30T06:04:50;7.53;;;5.20;;
8139;SDS011;4111;50.972;7.072;2024-01-30T06:07:17;5.90;;;5.30;;
8139;SDS011;4111;50.972;7.072;2024-01-30T06:09:44;12.07;;;5.47;;
8139;SDS011;4111;50.972;7.072;2024-01-30T06:12:12;6.40;;;4.80;;
8139;SDS011;4111;50.972;7.072;2024-01-30T06:14:38;5.83;;;4.77;;
8139;SDS011;4111;50.972;7.072;2024-01-30T06:17:05;5.47;;;4.73;;
8139;SDS011;4111;50.972;7.072;2024-01-30T06:19:31;6.13;;;5.00;;
8139;SDS011;4111;50.972;7.072;2024-01-30T06:21:58;7.10;;;5.10;;
8139;SDS011;4111;50.972;7.072;2024-01-30T06:24:25;6.97;;;5.37;;
8139;SDS011;4111;50.972;7.072;2024-01-30T06:26:51;7.23;;;4.70;;
8139;SDS011;4111;50.972;7.072;2024-01-30T06:29:18;7.00;;;5.17;;
8139;SDS011;4111;50.972;7.072;2024-01-30T06:31:45;6.27;;;4.97;;
8139;SDS011;4111;50.972;7.072;2024-01-30T06:34:12;9.43;;;5.50;;
8139;SDS011;4111;50.972;7.072;2024-01-30T06:36:38;5.73;;;5.13;;
8139;SDS011;4111;50.972;7.072;2024-01-30T06:39:05;7.73;;;5.60;;
8139;SDS011;4111;50.972;7.072;2024-01-30T06:41:31;8.90;;;5.43;;
8139;SDS011;4111;50.972;7.072;2024-01-30T06:43:58;6.60;;;5.20;;
8139;SDS011;4111;50.972;7.072;2024-01-30T06:46:25;6.23;;;5.40;;
8139;SDS011;4111;50.972;7.072;2024-01-30T06:48:51;9.73;;;6.13;;
8139;SDS011;4111;50.972;7.072;2024-01-30T06:51:18;5.77;;;5.27;;
8139;SDS011;4111;50.972;7.072;2024-01-30T06:53:44;6.30;;;5.50;;
8139;SDS011;4111;50.972;7.072;2024-01-30T06:56:11;6.30;;;5.30;;
8139;SDS011;4111;50.972;7.072;2024-01-30T06:58:37;7.63;;;5.43;;
8139;SDS011;4111;50.972;7.072;2024-01-30T07:01:04;6.60;;;5.07;;
8139;SDS011;4111;50.972;7.072;2024-01-30T07:03:30;6.07;;;4.83;;
8139;SDS011;4111;50.972;7.072;2024-01-30T07:05:57;7.43;;;5.30;;
8139;SDS011;4111;50.972;7.072;2024-01-30T07:08:23;6.17;;;4.97;;
8139;SDS011;4111;50.972;7.072;2024-01-30T07:10:50;7.20;;;5.90;;
8139;SDS011;4111;50.972;7.072;2024-01-30T07:13:16;6.30;;;5.20;;
8139;SDS011;4111;50.972;7.072;2024-01-30T07:15:43;8.63;;;6.57;;
8139;SDS011;4111;50.972;7.072;2024-01-30T07:18:09;9.80;;;6.43;;
8139;SDS011;4111;50.972;7.072;2024-01-30T07:20:36;13.67;;;8.50;;
8139;SDS011;4111;50.972;7.072;2024-01-30T07:23:02;12.00;;;7.87;;
8139;SDS011;4111;50.972;7.072;2024-01-30T07:25:29;6.80;;;5.60;;
8139;SDS011;4111;50.972;7.072;2024-01-30T07:27:56;6.00;;;5.07;;
8139;SDS011;4111;50.972;7.072;2024-01-30T07:30:24;10.63;;;6.20;;
8139;SDS011;4111;50.972;7.072;2024-01-30T07:32:50;9.83;;;7.00;;
8139;SDS011;4111;50.972;7.072;2024-01-30T07:35:17;11.80;;;7.07;;
8139;SDS011;4111;50.972;7.072;2024-01-30T07:37:43;8.47;;;6.23;;
8139;SDS011;4111;50.972;7.072;2024-01-30T07:40:10;9.80;;;6.73;;
8139;SDS011;4111;50.972;7.072;2024-01-30T07:42:37;9.20;;;7.10;;
8139;SDS011;4111;50.972;7.072;2024-01-30T07:45:03;9.13;;;6.87;;
8139;SDS011;4111;50.972;7.072;2024-01-30T07:47:30;9.27;;;6.00;;
8139;SDS011;4111;50.972;7.072;2024-01-30T07:49:56;8.17;;;6.57;;
8139;SDS011;4111;50.972;7.072;2024-01-30T07:52:23;6.97;;;5.47;;
8139;SDS011;4111;50.972;7.072;2024-01-30T07:54:50;18.77;;;9.43;;
8139;SDS011;4111;50.972;7.072;2024-01-30T07:57:17;8.97;;;6.47;;
8139;SDS011;4111;50.972;7.072;2024-01-30T07:59:44;9.20;;;6.10;;
8139;SDS011;4111;50.972;7.072;2024-01-30T08:02:11;7.07;;;5.17;;
8139;SDS011;4111;50.972;7.072;2024-01-30T08:04:41;6.87;;;5.53;;
8139;SDS011;4111;50.972;7.072;2024-01-30T08:07:08;9.90;;;5.70;;
8139;SDS011;4111;50.972;7.072;2024-01-30T08:09:35;7.67;;;6.07;;
8139;SDS011;4111;50.972;7.072;2024-01-30T08:12:02;7.70;;;6.37;;
8139;SDS011;4111;50.972;7.072;2024-01-30T08:14:28;11.50;;;6.50;;
8139;SDS011;4111;50.972;7.072;2024-01-30T08:16:55;9.57;;;6.90;;
8139;SDS011;4111;50.972;7.072;2024-01-30T08:19:21;7.23;;;5.60;;
8139;SDS011;4111;50.972;7.072;2024-01-30T08:21:48;10.47;;;6.67;;
8139;SDS011;4111;50.972;7.072;2024-01-30T08:24:15;7.63;;;6.30;;
8139;SDS011;4111;50.972;7.072;2024-01-30T08:26:41;6.30;;;5.40;;
8139;SDS011;4111;50.972;7.072;2024-01-30T08:29:08;7.40;;;4.90;;
8139;SDS011;4111;50.972;7.072;2024-01-30T08:31:35;7.80;;;5.80;;
8139;SDS011;4111;50.972;7.072;2024-01-30T08:34:01;8.90;;;5.73;;
8139;SDS011;4111;50.972;7.072;2024-01-30T08:36:28;5.33;;;4.83;;
8139;SDS011;4111;50.972;7.072;2024-01-30T08:38:55;7.20;;;4.90;;
8139;SDS011;4111;50.972;7.072;2024-01-30T08:41:27;7.10;;;5.03;;
8139;SDS011;4111;50.972;7.072;2024-01-30T08:43:55;13.60;;;5.40;;
8139;SDS011;4111;50.972;7.072;2024-01-30T08:46:21;6.80;;;5.07;;
8139;SDS011;4111;50.972;7.072;2024-01-30T08:48:48;6.77;;;5.20;;
8139;SDS011;4111;50.972;7.072;2024-01-30T08:51:15;5.80;;;5.17;;
8139;SDS011;4111;50.972;7.072;2024-01-30T08:53:42;6.67;;;5.87;;
8139;SDS011;4111;50.972;7.072;2024-01-30T08:56:09;7.73;;;5.37;;
8139;SDS011;4111;50.972;7.072;2024-01-30T08:58:36;6.10;;;5.20;;
8139;SDS011;4111;50.972;7.072;2024-01-30T09:01:02;6.17;;;5.37;;
8139;SDS011;4111;50.972;7.072;2024-01-30T09:03:31;6.47;;;5.10;;
8139;SDS011;4111;50.972;7.072;2024-01-30T09:05:58;9.30;;;5.27;;
8139;SDS011;4111;50.972;7.072;2024-01-30T09:08:25;8.20;;;6.23;;
8139;SDS011;4111;50.972;7.072;2024-01-30T09:10:51;7.30;;;5.70;;
8139;SDS011;4111;50.972;7.072;2024-01-30T09:13:18;6.40;;;5.43;;
8139;SDS011;4111;50.972;7.072;2024-01-30T09:15:44;8.43;;;5.37;;
8139;SDS011;4111;50.972;7.072;2024-01-30T09:18:11;9.13;;;4.97;;
8139;SDS011;4111;50.972;7.072;2024-01-30T09:20:37;6.73;;;5.17;;
8139;SDS011;4111;50.972;7.072;2024-01-30T09:23:04;7.47;;;5.17;;
8139;SDS011;4111;50.972;7.072;2024-01-30T09:25:30;5.77;;;5.17;;
8139;SDS011;4111;50.972;7.072;2024-01-30T09:27:57;5.93;;;5.20;;
8139;SDS011;4111;50.972;7.072;2024-01-30T09:30:24;8.13;;;5.33;;
8139;SDS011;4111;50.972;7.072;2024-01-30T09:32:50;8.20;;;5.23;;
8139;SDS011;4111;50.972;7.072;2024-01-30T09:35:17;6.43;;;5.40;;
8139;SDS011;4111;50.972;7.072;2024-01-30T09:37:43;6.40;;;4.93;;
8139;SDS011;4111;50.972;7.072;2024-01-30T09:40:10;5.67;;;5.17;;
8139;SDS011;4111;50.972;7.072;2024-01-30T09:42:38;5.50;;;4.87;;
8139;SDS011;4111;50.972;7.072;2024-01-30T09:45:05;8.47;;;5.23;;
8139;SDS011;4111;50.972;7.072;2024-01-30T09:47:32;9.70;;;5.20;;
8139;SDS011;4111;50.972;7.072;2024-01-30T09:50:06;8.87;;;5.73;;
8139;SDS011;4111;50.972;7.072;2024-01-30T09:52:33;6.17;;;5.17;;
8139;SDS011;4111;50.972;7.072;2024-01-30T09:55:00;6.33;;;5.07;;
8139;SDS011;4111;50.972;7.072;2024-01-30T09:57:27;6.10;;;5.10;;
8139;SDS011;4111;50.972;7.072;2024-01-30T09:59:54;6.17;;;4.87;;
8139;SDS011;4111;50.972;7.072;2024-01-30T10:02:20;6.40;;;5.10;;
8139;SDS011;4111;50.972;7.072;2024-01-30T10:04:48;7.50;;;4.77;;
8139;SDS011;4111;50.972;7.072;2024-01-30T10:07:16;7.22;;;5.10;;
8139;SDS011;4111;50.972;7.072;2024-01-30T10:09:44;5.67;;;5.03;;
8139;SDS011;4111;50.972;7.072;2024-01-30T10:12:11;6.37;;;5.07;;
8139;SDS011;4111;50.972;7.072;2024-01-30T10:14:39;7.60;;;5.27;;
8139;SDS011;4111;50.972;7.072;2024-01-30T10:17:09;5.37;;;4.80;;
8139;SDS011;4111;50.972;7.072;2024-01-30T10:19:49;5.93;;;4.37;;
8139;SDS011;4111;50.972;7.072;2024-01-30T10:22:17;7.07;;;4.97;;
8139;SDS011;4111;50.972;7.072;2024-01-30T10:24:43;7.67;;;5.93;;
8139;SDS011;4111;50.972;7.072;2024-01-30T10:27:11;5.00;;;4.47;;
8139;SDS011;4111;50.972;7.072;2024-01-30T10:29:38;12.93;;;6.57;;
8139;SDS011;4111;50.972;7.072;2024-01-30T10:32:04;8.93;;;5.17;;
8139;SDS011;4111;50.972;7.072;2024-01-30T10:34:31;5.63;;;5.13;;
8139;SDS011;4111;50.972;7.072;2024-01-30T10:37:08;5.73;;;5.13;;
8139;SDS011;4111;50.972;7.072;2024-01-30T10:39:42;6.13;;;4.50;;
8139;SDS011;4111;50.972;7.072;2024-01-30T10:42:12;8.53;;;5.13;;
8139;SDS011;4111;50.972;7.072;2024-01-30T10:44:48;6.30;;;4.67;;
8139;SDS011;4111;50.972;7.072;2024-01-30T10:47:28;7.70;;;5.13;;
8139;SDS011;4111;50.972;7.072;2024-01-30T10:49:55;5.03;;;4.50;;
8139;SDS011;4111;50.972;7.072;2024-01-30T10:52:24;7.80;;;4.57;;
8139;SDS011;4111;50.972;7.072;2024-01-30T10:54:53;7.10;;;5.23;;
8139;SDS011;4111;50.972;7.072;2024-01-30T10:57:22;8.10;;;5.00;;
8139;SDS011;4111;50.972;7.072;2024-01-30T10:59:51;6.03;;;4.53;;
8139;SDS011;4111;50.972;7.072;2024-01-30T11:02:25;7.47;;;5.20;;
8139;SDS011;4111;50.972;7.072;2024-01-30T11:04:59;9.23;;;4.83;;
8139;SDS011;4111;50.972;7.072;2024-01-30T11:07:27;7.60;;;4.80;;
8139;SDS011;4111;50.972;7.072;2024-01-30T11:12:27;5.40;;;4.13;;
8139;SDS011;4111;50.972;7.072;2024-01-30T11:15:04;8.30;;;5.07;;
8139;SDS011;4111;50.972;7.072;2024-01-30T11:20:19;6.47;;;4.03;;
8139;SDS011;4111;50.972;7.072;2024-01-30T11:22:48;7.73;;;4.40;;
8139;SDS011;4111;50.972;7.072;2024-01-30T11:25:19;6.33;;;4.30;;
8139;SDS011;4111;50.972;7.072;2024-01-30T11:27:47;9.00;;;5.03;;
8139;SDS011;4111;50.972;7.072;2024-01-30T11:30:26;9.47;;;4.80;;
8139;SDS011;4111;50.972;7.072;2024-01-30T11:33:13;6.03;;;4.73;;
8139;SDS011;4111;50.972;7.072;2024-01-30T11:35:41;6.83;;;4.40;;
8139;SDS011;4111;50.972;7.072;2024-01-30T11:38:15;7.30;;;4.60;;
8139;SDS011;4111;50.972;7.072;2024-01-30T11:40:42;8.30;;;5.27;;
8139;SDS011;4111;50.972;7.072;2024-01-30T11:43:10;6.00;;;4.77;;
8139;SDS011;4111;50.972;7.072;2024-01-30T11:45:36;7.80;;;4.40;;
8139;SDS011;4111;50.972;7.072;2024-01-30T11:48:04;6.27;;;4.50;;
8139;SDS011;4111;50.972;7.072;2024-01-30T11:50:35;7.60;;;5.27;;
8139;SDS011;4111;50.972;7.072;2024-01-30T11:53:02;5.70;;;4.50;;
8139;SDS011;4111;50.972;7.072;2024-01-30T11:55:29;5.40;;;4.73;;
8139;SDS011;4111;50.972;7.072;2024-01-30T11:58:00;8.13;;;4.43;;
8139;SDS011;4111;50.972;7.072;2024-01-30T12:00:27;8.73;;;4.93;;
8139;SDS011;4111;50.972;7.072;2024-01-30T12:02:55;6.17;;;4.00;;
8139;SDS011;4111;50.972;7.072;2024-01-30T12:05:22;4.60;;;3.93;;
8139;SDS011;4111;50.972;7.072;2024-01-30T12:07:52;5.87;;;3.83;;
8139;SDS011;4111;50.972;7.072;2024-01-30T12:10:19;4.67;;;4.17;;
8139;SDS011;4111;50.972;7.072;2024-01-30T12:12:46;5.43;;;4.33;;
8139;SDS011;4111;50.972;7.072;2024-01-30T12:15:15;7.07;;;4.70;;
8139;SDS011;4111;50.972;7.072;2024-01-30T12:17:43;6.27;;;4.10;;
8139;SDS011;4111;50.972;7.072;2024-01-30T12:20:11;6.57;;;4.43;;
8139;SDS011;4111;50.972;7.072;2024-01-30T12:22:43;7.00;;;4.17;;
8139;SDS011;4111;50.972;7.072;2024-01-30T12:25:11;7.67;;;4.90;;
8139;SDS011;4111;50.972;7.072;2024-01-30T12:27:39;5.93;;;4.30;;
8139;SDS011;4111;50.972;7.072;2024-01-30T12:30:09;5.57;;;4.33;;
8139;SDS011;4111;50.972;7.072;2024-01-30T12:32:42;5.60;;;4.17;;
8139;SDS011;4111;50.972;7.072;2024-01-30T12:35:10;8.10;;;4.60;;
8139;SDS011;4111;50.972;7.072;2024-01-30T12:37:43;8.07;;;4.90;;
8139;SDS011;4111;50.972;7.072;2024-01-30T12:40:11;8.60;;;5.00;;
8139;SDS011;4111;50.972;7.072;2024-01-30T12:42:41;8.60;;;4.73;;
8139;SDS011;4111;50.972;7.072;2024-01-30T12:45:13;6.33;;;4.23;;
8139;SDS011;4111;50.972;7.072;2024-01-30T12:47:41;10.03;;;5.00;;
8139;SDS011;4111;50.972;7.072;2024-01-30T12:50:08;6.80;;;4.67;;
8139;SDS011;4111;50.972;7.072;2024-01-30T12:52:35;6.40;;;4.90;;
8139;SDS011;4111;50.972;7.072;2024-01-30T12:55:02;7.37;;;4.67;;
8139;SDS011;4111;50.972;7.072;2024-01-30T12:57:30;7.13;;;4.63;;
8139;SDS011;4111;50.972;7.072;2024-01-30T12:59:56;13.03;;;5.00;;
8139;SDS011;4111;50.972;7.072;2024-01-30T13:02:23;5.37;;;4.47;;
8139;SDS011;4111;50.972;7.072;2024-01-30T13:04:50;6.00;;;4.70;;
8139;SDS011;4111;50.972;7.072;2024-01-30T13:07:17;5.37;;;4.70;;
8139;SDS011;4111;50.972;7.072;2024-01-30T13:09:43;7.00;;;4.57;;
8139;SDS011;4111;50.972;7.072;2024-01-30T13:12:10;7.07;;;4.57;;
8139;SDS011;4111;50.972;7.072;2024-01-30T13:14:36;7.67;;;4.60;;
8139;SDS011;4111;50.972;7.072;2024-01-30T13:17:03;7.63;;;4.80;;
8139;SDS011;4111;50.972;7.072;2024-01-30T13:19:30;6.80;;;4.90;;
8139;SDS011;4111;50.972;7.072;2024-01-30T13:21:57;8.73;;;5.27;;
8139;SDS011;4111;50.972;7.072;2024-01-30T13:24:24;4.97;;;4.33;;
8139;SDS011;4111;50.972;7.072;2024-01-30T13:26:51;6.50;;;4.77;;
8139;SDS011;4111;50.972;7.072;2024-01-30T13:29:18;6.87;;;4.97;;
8139;SDS011;4111;50.972;7.072;2024-01-30T13:31:45;9.90;;;5.10;;
8139;SDS011;4111;50.972;7.072;2024-01-30T13:34:12;8.90;;;5.43;;
8139;SDS011;4111;50.972;7.072;2024-01-30T13:36:40;6.90;;;5.50;;
8139;SDS011;4111;50.972;7.072;2024-01-30T13:39:07;8.70;;;5.47;;
8139;SDS011;4111;50.972;7.072;2024-01-30T13:41:36;8.57;;;5.63;;
8139;SDS011;4111;50.972;7.072;2024-01-30T13:44:03;10.03;;;5.20;;
8139;SDS011;4111;50.972;7.072;2024-01-30T13:46:30;7.87;;;5.07;;
8139;SDS011;4111;50.972;7.072;2024-01-30T13:48:57;8.33;;;5.80;;
8139;SDS011;4111;50.972;7.072;2024-01-30T13:51:24;9.87;;;5.37;;
8139;SDS011;4111;50.972;7.072;2024-01-30T13:53:50;8.10;;;5.40;;
8139;SDS011;4111;50.972;7.072;2024-01-30T13:56:17;11.53;;;6.13;;
8139;SDS011;4111;50.972;7.072;2024-01-30T13:58:44;8.67;;;5.50;;
8139;SDS011;4111;50.972;7.072;2024-01-30T14:01:11;9.63;;;6.97;;
8139;SDS011;4111;50.972;7.072;2024-01-30T14:03:37;11.23;;;5.90;;
8139;SDS011;4111;50.972;7.072;2024-01-30T14:06:04;13.33;;;5.93;;
8139;SDS011;4111;50.972;7.072;2024-01-30T14:08:31;7.40;;;5.20;;
8139;SDS011;4111;50.972;7.072;2024-01-30T14:10:58;8.20;;;5.13;;
8139;SDS011;4111;50.972;7.072;2024-01-30T14:13:24;8.30;;;5.23;;
8139;SDS011;4111;50.972;7.072;2024-01-30T14:15:51;8.83;;;5.20;;
8139;SDS011;4111;50.972;7.072;2024-01-30T14:18:19;8.53;;;5.20;;
8139;SDS011;4111;50.972;7.072;2024-01-30T14:20:45;10.67;;;5.40;;
8139;SDS011;4111;50.972;7.072;2024-01-30T14:23:12;10.40;;;4.93;;
8139;SDS011;4111;50.972;7.072;2024-01-30T14:25:39;9.90;;;4.10;;
8139;SDS011;4111;50.972;7.072;2024-01-30T14:28:05;7.43;;;4.53;;
8139;SDS011;4111;50.972;7.072;2024-01-30T14:30:33;8.67;;;4.27;;
8139;SDS011;4111;50.972;7.072;2024-01-30T14:33:00;6.80;;;4.93;;
8139;SDS011;4111;50.972;7.072;2024-01-30T14:35:26;8.87;;;4.67;;
8139;SDS011;4111;50.972;7.072;2024-01-30T14:37:53;7.67;;;4.63;;
8139;SDS011;4111;50.972;7.072;2024-01-30T14:40:19;8.93;;;4.77;;
8139;SDS011;4111;50.972;7.072;2024-01-30T14:42:49;5.93;;;4.40;;
8139;SDS011;4111;50.972;7.072;2024-01-30T14:45:15;5.97;;;4.63;;
8139;SDS011;4111;50.972;7.072;2024-01-30T14:47:42;7.20;;;4.30;;
8139;SDS011;4111;50.972;7.072;2024-01-30T14:50:09;7.80;;;5.03;;
8139;SDS011;4111;50.972;7.072;2024-01-30T14:52:36;8.10;;;4.90;;
8139;SDS011;4111;50.972;7.072;2024-01-30T14:55:08;9.13;;;5.07;;
8139;SDS011;4111;50.972;7.072;2024-01-30T14:57:36;6.93;;;4.60;;
8139;SDS011;4111;50.972;7.072;2024-01-30T15:00:04;7.30;;;4.40;;
8139;SDS011;4111;50.972;7.072;2024-01-30T15:02:31;5.77;;;4.73;;
8139;SDS011;4111;50.972;7.072;2024-01-30T15:04:58;6.23;;;5.03;;
8139;SDS011;4111;50.972;7.072;2024-01-30T15:07:24;10.43;;;4.80;;
8139;SDS011;4111;50.972;7.072;2024-01-30T15:10:04;10.40;;;4.60;;
8139;SDS011;4111;50.972;7.072;2024-01-30T15:12:31;9.27;;;5.00;;
8139;SDS011;4111;50.972;7.072;2024-01-30T15:14:57;7.73;;;4.63;;
8139;SDS011;4111;50.972;7.072;2024-01-30T15:17:24;5.53;;;4.83;;
8139;SDS011;4111;50.972;7.072;2024-01-30T15:19:51;10.03;;;5.00;;